createdAt,value
2023-02-14T00:02:38.400Z,100680.84
2023-02-14T00:07:40.111Z,100679.56
2023-02-14T00:12:46.742Z,100677.08
2023-02-14T00:17:50.172Z,100678.27
2023-02-14T00:22:52.914Z,100679.29
2023-02-14T00:27:55.616Z,100682.48
2023-02-14T00:32:57.405Z,100683.54
2023-02-14T00:37:59.758Z,100682.89
2023-02-14T00:43:01.404Z,100687.92
2023-02-14T00:48:03.183Z,100693.04
2023-02-14T00:53:04.983Z,100692.10
2023-02-14T00:58:06.675Z,100690.64
2023-02-14T01:03:08.367Z,100679.03
2023-02-14T01:08:10.246Z,100681.39
2023-02-14T01:13:12.586Z,100682.30
2023-02-14T01:18:17.113Z,100684.50
2023-02-14T01:23:18.765Z,100677.94
2023-02-14T01:28:20.421Z,100675.91
2023-02-14T01:33:22.131Z,100676.86
2023-02-14T01:38:23.868Z,100678.27
2023-02-14T01:43:25.676Z,100648.30
2023-02-14T01:48:27.305Z,100667.95
2023-02-14T01:53:29.626Z,100662.56
2023-02-14T01:58:36.374Z,100656.99
2023-02-14T02:03:46.627Z,100654.27
2023-02-14T02:09:03.522Z,100650.02
2023-02-14T02:14:05.489Z,100646.47
2023-02-14T02:19:36.379Z,100638.48
2023-02-14T02:24:53.256Z,100641.14
2023-02-14T02:30:30.607Z,100637.02
2023-02-14T02:35:53.831Z,100639.01
2023-02-14T02:41:07.035Z,100644.33
2023-02-14T02:46:43.169Z,100648.02
2023-02-14T02:52:12.633Z,100650.58
2023-02-14T02:57:29.801Z,100653.09
2023-02-14T03:02:56.621Z,100654.75
2023-02-14T03:07:58.286Z,100654.06
2023-02-14T03:13:27.813Z,100654.50
2023-02-14T03:18:48.942Z,100651.41
2023-02-14T03:24:09.512Z,100653.64
2023-02-14T03:29:28.494Z,100651.48
2023-02-14T03:34:44.349Z,100648.98
2023-02-14T03:40:02.115Z,100647.74
2023-02-14T03:45:09.175Z,100648.70
2023-02-14T03:50:16.810Z,100650.95
2023-02-14T03:55:27.084Z,100653.45
2023-02-14T04:00:31.723Z,100658.11
2023-02-14T04:05:33.538Z,100660.48
2023-02-14T04:10:35.511Z,100662.11
2023-02-14T04:15:37.514Z,100661.17
2023-02-14T04:20:39.283Z,100657.41
2023-02-14T04:25:42.959Z,100649.84
2023-02-14T04:30:44.649Z,100653.14
2023-02-14T04:35:47.770Z,100656.33
2023-02-14T04:40:50.307Z,100653.81
2023-02-14T04:45:52.031Z,100654.38
2023-02-14T04:50:54.957Z,100654.42
2023-02-14T04:55:56.777Z,100651.95
2023-02-14T05:00:58.952Z,100661.63
2023-02-14T05:06:00.867Z,100666.94
2023-02-14T05:11:02.609Z,100674.70
2023-02-14T05:16:04.567Z,100680.76
2023-02-14T05:21:06.455Z,100676.88
2023-02-14T05:26:16.329Z,100685.52
2023-02-14T05:31:18.093Z,100684.00
2023-02-14T05:36:19.850Z,100687.23
2023-02-14T05:41:21.631Z,100691.56
2023-02-14T05:46:23.294Z,100694.65
2023-02-14T05:51:25.009Z,100694.05
2023-02-14T05:56:27.243Z,100694.34
2023-02-14T06:01:37.928Z,100699.77
2023-02-14T06:06:39.610Z,100699.25
2023-02-14T06:11:41.314Z,100700.65
2023-02-14T06:16:43.019Z,100708.60
2023-02-14T06:21:44.810Z,100716.00
2023-02-14T06:26:46.497Z,100714.23
2023-02-14T06:31:48.352Z,100717.02
2023-02-14T06:36:50.128Z,100715.66
2023-02-14T06:41:52.137Z,100716.15
2023-02-14T06:46:53.826Z,100712.42
2023-02-14T06:51:55.508Z,100712.48
2023-02-14T06:56:57.405Z,100711.42
2023-02-14T07:01:59.076Z,100725.89
2023-02-14T07:07:01.411Z,100725.02
2023-02-14T07:12:03.411Z,100731.52
2023-02-14T07:17:05.225Z,100733.30
2023-02-14T07:22:06.863Z,100737.60
2023-02-14T07:27:08.532Z,100731.05
2023-02-14T07:32:10.341Z,100733.98
2023-02-14T07:37:12.116Z,100727.14
2023-02-14T07:42:13.871Z,100732.10
2023-02-14T07:47:15.623Z,100732.44
2023-02-14T07:52:17.951Z,100729.47
2023-02-14T07:57:20.364Z,100660.11
2023-02-14T08:02:22.261Z,100737.89
2023-02-14T08:07:24.155Z,100736.77
2023-02-14T08:12:44.858Z,100736.73
2023-02-14T08:17:46.707Z,100733.02
2023-02-14T08:22:48.368Z,100736.11
2023-02-14T08:27:50.286Z,100737.66
2023-02-14T08:32:53.390Z,100744.88
2023-02-14T08:37:55.083Z,100752.76
2023-02-14T08:42:56.787Z,100750.11
2023-02-14T08:48:09.036Z,100751.15
2023-02-14T08:53:17.569Z,100757.98
2023-02-14T08:58:19.263Z,100756.06
2023-02-14T09:03:21.383Z,100760.09
2023-02-14T09:08:23.062Z,100762.25
2023-02-14T09:13:24.773Z,100760.82
2023-02-14T09:18:26.409Z,100763.96
2023-02-14T09:23:28.128Z,100755.62
2023-02-14T09:28:30.580Z,100757.23
2023-02-14T09:33:32.359Z,100748.46
2023-02-14T09:38:34.014Z,100751.93
2023-02-14T09:43:56.792Z,100759.98
2023-02-14T09:48:59.260Z,100757.74
2023-02-14T09:54:09.333Z,100761.41
2023-02-14T09:59:29.317Z,100764.78
2023-02-14T10:04:38.182Z,100767.80
2023-02-14T10:10:02.637Z,100762.45
2023-02-14T10:15:32.395Z,100764.70
2023-02-14T10:20:54.235Z,100768.05
2023-02-14T10:26:05.481Z,100765.69
2023-02-14T10:31:23.966Z,100763.85
2023-02-14T10:36:51.313Z,100763.02
2023-02-14T10:42:17.041Z,100758.13
2023-02-14T10:47:25.149Z,100757.55
2023-02-14T10:52:48.747Z,100758.95
2023-02-14T10:57:55.178Z,100750.71
2023-02-14T11:03:05.491Z,100747.61
2023-02-14T11:08:28.739Z,100752.95
2023-02-14T11:13:38.882Z,100739.23
2023-02-14T11:18:41.609Z,100739.30
2023-02-14T11:23:46.931Z,100730.09
2023-02-14T11:28:56.442Z,100727.06
2023-02-14T11:33:59.798Z,100726.73
2023-02-14T11:39:25.883Z,100722.94
2023-02-14T11:44:29.648Z,100717.79
2023-02-14T11:49:35.568Z,100714.92
2023-02-14T11:54:40.631Z,100705.86
2023-02-14T11:59:45.275Z,100705.90
2023-02-14T12:04:50.057Z,100705.00
2023-02-14T12:10:17.389Z,100696.16
2023-02-14T12:15:27.079Z,100687.23
2023-02-14T12:20:45.749Z,100675.95
2023-02-14T12:25:58.829Z,100678.09
2023-02-14T12:31:00.808Z,100677.48
2023-02-14T12:36:05.869Z,100668.79
2023-02-14T12:41:18.121Z,100670.48
2023-02-14T12:46:43.474Z,100666.71
2023-02-14T12:52:48.193Z,100660.71
2023-02-14T12:58:11.241Z,100663.80
2023-02-14T13:03:36.252Z,100655.77
2023-02-14T13:08:46.253Z,100664.48
2023-02-14T13:14:32.938Z,100657.09
2023-02-14T13:19:39.832Z,100642.96
2023-02-14T13:24:44.621Z,100640.16
2023-02-14T13:29:51.594Z,100640.26
2023-02-14T13:34:53.940Z,100637.12
2023-02-14T13:39:59.159Z,100631.29
2023-02-14T13:45:00.921Z,100637.86
2023-02-14T13:50:05.376Z,100636.19
2023-02-14T13:55:09.973Z,100643.07
2023-02-14T14:00:17.621Z,100638.34
2023-02-14T14:05:42.731Z,100638.05
2023-02-14T14:10:49.883Z,100632.76
2023-02-14T14:16:29.205Z,100638.61
2023-02-14T14:21:59.470Z,100638.42
2023-02-14T14:27:15.283Z,100637.70
2023-02-14T14:32:23.372Z,100638.54
2023-02-14T14:37:29.168Z,100641.98
2023-02-14T14:42:40.028Z,100641.16
2023-02-14T14:47:45.201Z,100646.35
2023-02-14T14:52:49.819Z,100641.56
2023-02-14T14:57:54.445Z,100638.02
2023-02-14T15:03:04.942Z,100641.23
2023-02-14T15:08:16.636Z,100643.23
2023-02-14T15:13:37.526Z,100639.41
2023-02-14T15:18:39.315Z,100638.06
2023-02-14T15:23:44.093Z,100633.30
2023-02-14T15:28:55.348Z,100632.05
2023-02-14T15:34:00.149Z,100633.85
2023-02-14T15:39:06.633Z,100639.36
2023-02-14T15:44:19.780Z,100636.17
2023-02-14T15:49:24.334Z,100639.04
2023-02-14T15:54:43.299Z,100643.57
2023-02-14T15:59:45.134Z,100643.78
2023-02-14T16:04:47.240Z,100644.98
2023-02-14T16:09:50.446Z,100644.67
2023-02-14T16:15:25.524Z,100646.02
2023-02-14T16:20:39.995Z,100655.42
2023-02-14T16:25:42.422Z,100637.20
2023-02-14T16:30:45.992Z,100661.14
2023-02-14T16:35:49.424Z,100661.84
2023-02-14T16:40:54.382Z,100660.27
2023-02-14T16:45:56.062Z,100667.75
2023-02-14T16:50:57.774Z,100668.34
2023-02-14T16:55:59.461Z,100670.05
2023-02-14T17:01:01.546Z,100674.58
2023-02-14T17:06:16.534Z,100684.25
2023-02-14T17:11:19.234Z,100683.16
2023-02-14T17:16:21.685Z,100680.84
2023-02-14T17:21:24.345Z,100684.35
2023-02-14T17:26:25.975Z,100685.50
2023-02-14T17:31:28.673Z,100686.48
2023-02-14T17:36:31.015Z,100680.40
2023-02-14T17:41:32.927Z,100679.97
2023-02-14T17:46:35.161Z,100682.48
2023-02-14T17:51:36.917Z,100686.54
2023-02-14T17:56:38.712Z,100687.77
2023-02-14T18:01:40.423Z,100683.27
2023-02-14T18:06:43.119Z,100683.14
2023-02-14T18:11:46.094Z,100678.27
2023-02-14T18:16:47.761Z,100673.29
2023-02-14T18:21:49.479Z,100676.98
2023-02-14T18:26:51.238Z,100682.95
2023-02-14T18:31:53.053Z,100683.06
2023-02-14T18:36:55.518Z,100678.79
2023-02-14T18:42:00.234Z,100672.58
2023-02-14T18:47:02.895Z,100676.22
2023-02-14T18:52:05.051Z,100673.38
2023-02-14T18:57:06.831Z,100672.55
2023-02-14T19:02:09.673Z,100672.73
2023-02-14T19:07:11.511Z,100672.48
2023-02-14T19:12:13.764Z,100666.95
2023-02-14T19:17:16.504Z,100657.36
2023-02-14T19:22:19.701Z,100651.20
2023-02-14T19:27:22.686Z,100646.88
2023-02-14T19:32:24.438Z,100646.41
2023-02-14T19:37:27.878Z,100642.78
2023-02-14T19:42:30.028Z,100648.92
2023-02-14T19:47:46.177Z,100651.15
2023-02-14T19:52:49.208Z,100644.13
2023-02-14T19:57:51.082Z,100650.12
2023-02-14T20:02:52.853Z,100658.51
2023-02-14T20:07:55.394Z,100655.61
2023-02-14T20:12:57.005Z,100652.20
2023-02-14T20:17:58.827Z,100652.39
2023-02-14T20:23:00.862Z,100654.04
2023-02-14T20:28:05.926Z,100656.45
2023-02-14T20:33:07.612Z,100655.50
2023-02-14T20:38:09.317Z,100651.15
2023-02-14T20:43:11.185Z,100649.91
2023-02-14T20:48:12.795Z,100646.86
2023-02-14T20:53:14.836Z,100645.50
2023-02-14T20:58:16.659Z,100645.42
2023-02-14T21:03:18.306Z,100643.08
2023-02-14T21:08:20.010Z,100640.51
2023-02-14T21:13:21.691Z,100634.14
2023-02-14T21:18:23.524Z,100631.70
2023-02-14T21:23:25.249Z,100628.10
2023-02-14T21:28:27.039Z,100630.02
2023-02-14T21:33:31.327Z,100622.69
2023-02-14T21:38:33.111Z,100614.20
2023-02-14T21:43:38.964Z,100616.75
2023-02-14T21:49:00.212Z,100614.13
2023-02-14T21:54:01.942Z,100610.39
2023-02-14T21:59:03.823Z,100609.66
2023-02-14T22:04:10.477Z,100604.92
2023-02-14T22:09:13.712Z,100604.22
2023-02-14T22:14:18.680Z,100601.00
2023-02-14T22:19:20.781Z,100596.88
2023-02-14T22:24:22.473Z,100591.02
2023-02-14T22:29:24.465Z,100590.66
2023-02-14T22:34:32.533Z,100582.84
2023-02-14T22:39:34.350Z,100583.68
2023-02-14T22:44:36.318Z,100587.58
2023-02-14T22:49:48.425Z,100582.54
2023-02-14T22:54:52.454Z,100578.95
2023-02-14T22:59:54.082Z,100578.53
2023-02-14T23:04:57.240Z,100571.39
2023-02-14T23:09:59.115Z,100567.73
2023-02-14T23:15:19.309Z,100561.19
2023-02-14T23:20:39.950Z,100562.66
2023-02-14T23:25:43.532Z,100561.78
2023-02-14T23:30:45.223Z,100555.35
2023-02-14T23:35:47.026Z,100552.00
2023-02-14T23:41:07.623Z,100555.38
2023-02-14T23:46:09.364Z,100551.77
2023-02-14T23:51:11.195Z,100546.41
2023-02-14T23:56:12.888Z,100542.52
